createdAt,value
2022-10-17T00:01:56.262Z,52.61
2022-10-17T00:06:59.679Z,52.04
2022-10-17T00:12:05.100Z,52.08
2022-10-17T00:17:08.502Z,52.02
2022-10-17T00:22:11.895Z,52.35
2022-10-17T00:27:16.631Z,52.56
2022-10-17T00:32:20.589Z,52.32
2022-10-17T00:37:23.967Z,52.12
2022-10-17T00:42:29.046Z,52.11
2022-10-17T00:47:33.078Z,51.49
2022-10-17T00:52:37.190Z,51.76
2022-10-17T00:57:42.369Z,51.49
2022-10-17T01:02:46.113Z,50.96
2022-10-17T01:07:50.702Z,51.00
2022-10-17T01:13:01.826Z,50.94
2022-10-17T01:18:13.797Z,51.07
2022-10-17T01:23:42.282Z,50.98
2022-10-17T01:29:05.521Z,51.46
2022-10-17T01:34:17.187Z,51.06
2022-10-17T01:39:28.099Z,50.70
2022-10-17T01:44:38.078Z,51.09
2022-10-17T01:49:45.268Z,50.96
2022-10-17T01:54:51.684Z,51.39
2022-10-17T01:59:56.539Z,51.43
2022-10-17T02:05:03.114Z,50.96
2022-10-17T02:10:11.898Z,51.50
2022-10-17T02:15:49.032Z,51.12
2022-10-17T02:20:58.433Z,51.45
2022-10-17T02:26:07.139Z,51.51
2022-10-17T02:31:15.448Z,51.25
2022-10-17T02:36:24.578Z,51.92
2022-10-17T02:46:32.776Z,51.90
2022-10-17T02:51:43.214Z,53.36
2022-10-17T02:56:51.842Z,52.56
2022-10-17T03:01:55.739Z,53.52
2022-10-17T03:07:02.184Z,53.70
2022-10-17T03:12:06.398Z,53.31
2022-10-17T03:17:11.203Z,53.44
2022-10-17T03:22:16.170Z,53.97
2022-10-17T03:27:22.528Z,54.52
2022-10-17T03:32:26.060Z,53.90
2022-10-17T03:37:32.537Z,55.26
2022-10-17T03:42:36.354Z,55.18
2022-10-17T03:47:39.801Z,55.64
2022-10-17T03:52:47.700Z,55.55
2022-10-17T03:57:51.206Z,55.72
2022-10-17T04:02:56.925Z,55.21
2022-10-17T04:08:04.784Z,54.88
2022-10-17T04:13:27.250Z,55.09
2022-10-17T04:18:30.778Z,55.13
2022-10-17T04:23:36.417Z,54.70
2022-10-17T04:28:49.967Z,54.37
2022-10-17T04:33:53.684Z,54.42
2022-10-17T04:38:58.621Z,54.72
2022-10-17T04:44:02.472Z,54.39
2022-10-17T04:49:09.776Z,54.41
2022-10-17T04:54:17.123Z,54.13
2022-10-17T04:59:23.900Z,54.26
2022-10-17T05:04:37.033Z,53.91
2022-10-17T05:09:42.916Z,54.36
2022-10-17T05:14:46.802Z,53.82
2022-10-17T05:19:50.954Z,53.86
2022-10-17T05:24:56.000Z,54.11
2022-10-17T05:30:00.307Z,54.90
2022-10-17T05:35:08.132Z,55.15
2022-10-17T05:40:14.613Z,54.46
2022-10-17T05:45:18.804Z,54.25
2022-10-17T05:50:24.316Z,54.45
2022-10-17T05:55:40.493Z,54.50
2022-10-17T06:00:43.997Z,54.53
2022-10-17T06:05:47.694Z,54.63
2022-10-17T06:10:52.857Z,54.47
2022-10-17T06:15:56.388Z,54.13
2022-10-17T06:21:05.226Z,54.12
2022-10-17T06:26:10.514Z,53.95
2022-10-17T06:31:15.712Z,53.80
2022-10-17T06:36:19.231Z,54.27
2022-10-17T06:41:25.363Z,53.58
2022-10-17T06:46:31.044Z,53.41
2022-10-17T06:51:38.270Z,53.17
2022-10-17T06:56:46.574Z,53.37
2022-10-17T07:02:06.403Z,53.00
2022-10-17T07:07:10.316Z,53.11
2022-10-17T07:12:15.746Z,52.75
2022-10-17T07:17:21.707Z,53.47
2022-10-17T07:22:25.535Z,53.05
2022-10-17T07:27:34.369Z,53.21
2022-10-17T07:32:38.766Z,52.40
2022-10-17T07:37:44.097Z,51.96
2022-10-17T07:42:49.224Z,51.20
2022-10-17T07:47:53.075Z,50.76
2022-10-17T07:52:57.644Z,50.22
2022-10-17T07:58:02.468Z,50.52
2022-10-17T08:03:06.054Z,50.02
2022-10-17T08:08:09.486Z,49.92
2022-10-17T08:13:14.291Z,49.56
2022-10-17T08:18:18.298Z,49.55
2022-10-17T08:23:21.743Z,49.31
2022-10-17T08:28:26.566Z,48.62
2022-10-17T08:33:30.001Z,48.97
2022-10-17T08:38:35.524Z,48.51
2022-10-17T08:43:51.064Z,48.07
2022-10-17T08:48:54.481Z,47.32
2022-10-17T08:54:03.469Z,47.07
2022-10-17T08:59:12.632Z,46.54
2022-10-17T09:04:39.253Z,46.65
2022-10-17T09:09:49.173Z,46.81
2022-10-17T09:15:05.636Z,45.93
2022-10-17T09:20:13.120Z,46.05
2022-10-17T09:25:19.935Z,45.62
2022-10-17T09:30:44.738Z,45.54
2022-10-17T09:35:49.327Z,45.22
2022-10-17T09:40:57.245Z,44.95
2022-10-17T09:46:08.196Z,44.38
2022-10-17T09:51:25.070Z,44.22
2022-10-17T09:56:28.913Z,43.45
2022-10-17T10:01:34.812Z,43.09
2022-10-17T10:06:38.597Z,42.91
2022-10-17T10:11:46.938Z,42.03
2022-10-17T10:16:53.632Z,42.55
2022-10-17T10:21:58.486Z,41.94
2022-10-17T10:27:04.334Z,42.05
2022-10-17T10:32:11.269Z,41.28
2022-10-17T10:37:19.727Z,41.20
2022-10-17T10:42:28.571Z,41.15
2022-10-17T10:47:33.981Z,40.09
2022-10-17T10:52:43.847Z,40.59
2022-10-17T10:57:48.694Z,40.41
2022-10-17T11:03:01.746Z,39.68
2022-10-17T11:08:10.875Z,39.41
2022-10-17T11:13:18.142Z,38.83
2022-10-17T11:18:25.882Z,38.43
2022-10-17T11:23:35.337Z,37.60
2022-10-17T11:28:38.759Z,37.40
2022-10-17T11:33:49.919Z,37.23
2022-10-17T11:38:55.967Z,37.96
2022-10-17T11:44:01.993Z,38.18
2022-10-17T11:49:17.443Z,38.49
2022-10-17T11:54:26.230Z,38.01
2022-10-17T11:59:58.087Z,37.61
2022-10-17T12:05:09.312Z,38.16
2022-10-17T12:10:25.237Z,38.14
2022-10-17T12:15:30.445Z,38.10
2022-10-17T12:20:36.862Z,38.71
2022-10-17T12:25:51.627Z,37.79
2022-10-17T12:31:00.194Z,37.81
2022-10-17T12:36:49.340Z,38.07
2022-10-17T12:41:57.156Z,38.29
2022-10-17T12:47:38.488Z,38.59
2022-10-17T12:53:02.080Z,38.08
2022-10-17T12:58:13.545Z,38.34
2022-10-17T13:03:18.718Z,39.32
2022-10-17T13:08:24.164Z,38.27
2022-10-17T13:13:38.223Z,38.23
2022-10-17T13:18:41.551Z,38.77
2022-10-17T13:23:45.206Z,38.73
2022-10-17T13:29:02.546Z,38.51
2022-10-17T13:34:08.067Z,39.01
2022-10-17T13:39:17.190Z,38.86
2022-10-17T13:44:25.688Z,38.92
2022-10-17T13:49:33.874Z,39.01
2022-10-17T13:54:40.084Z,38.77
2022-10-17T13:59:47.630Z,38.87
2022-10-17T14:05:18.149Z,39.62
2022-10-17T14:10:24.052Z,39.75
2022-10-17T14:15:30.515Z,39.24
2022-10-17T14:26:09.889Z,39.62
2022-10-17T14:31:25.481Z,39.84
2022-10-17T14:36:38.726Z,41.01
2022-10-17T14:41:44.692Z,40.85
2022-10-17T14:46:53.350Z,40.41
2022-10-17T14:52:29.231Z,40.50
2022-10-17T14:57:43.134Z,40.57
2022-10-17T15:02:48.827Z,40.68
2022-10-17T15:07:53.017Z,40.72
2022-10-17T15:13:04.641Z,41.54
2022-10-17T15:18:21.178Z,41.39
2022-10-17T15:23:24.537Z,41.64
2022-10-17T15:28:28.053Z,42.03
2022-10-17T15:33:33.033Z,41.74
2022-10-17T15:38:36.389Z,41.93
2022-10-17T15:43:39.778Z,42.22
2022-10-17T15:48:44.680Z,41.99
2022-10-17T15:53:48.140Z,41.85
2022-10-17T15:58:51.967Z,42.36
2022-10-17T16:03:57.593Z,42.41
2022-10-17T16:09:00.912Z,42.22
2022-10-17T16:14:05.460Z,42.61
2022-10-17T16:19:10.175Z,42.40
2022-10-17T16:24:13.662Z,43.05
2022-10-17T16:29:17.486Z,43.04
2022-10-17T16:34:22.227Z,43.42
2022-10-17T16:39:25.552Z,43.39
2022-10-17T16:44:28.952Z,43.69
2022-10-17T16:49:33.773Z,43.53
2022-10-17T16:54:37.172Z,43.35
2022-10-17T16:59:40.544Z,43.12
2022-10-17T17:04:45.373Z,43.81
2022-10-17T17:09:49.039Z,43.88
2022-10-17T17:14:52.468Z,43.60
2022-10-17T17:19:57.182Z,43.46
2022-10-17T17:25:00.594Z,44.04
2022-10-17T17:30:04.158Z,44.32
2022-10-17T17:35:09.596Z,43.74
2022-10-17T17:40:13.365Z,43.65
2022-10-17T17:45:16.895Z,44.23
2022-10-17T17:50:21.715Z,44.26
2022-10-17T17:55:25.072Z,45.79
2022-10-17T18:00:29.289Z,45.82
2022-10-17T18:05:34.050Z,47.08
2022-10-17T18:10:37.448Z,46.31
2022-10-17T18:15:41.444Z,46.12
2022-10-17T18:20:46.181Z,46.91
2022-10-17T18:25:55.704Z,47.45
2022-10-17T18:30:59.188Z,47.59
2022-10-17T18:36:08.308Z,48.70
2022-10-17T18:41:13.628Z,47.37
2022-10-17T18:46:18.421Z,48.56
2022-10-17T18:51:24.591Z,48.27
2022-10-17T18:56:28.263Z,49.11
2022-10-17T19:01:31.679Z,49.26
2022-10-17T19:06:36.925Z,49.86
2022-10-17T19:11:40.438Z,49.66
2022-10-17T19:16:45.870Z,49.92
2022-10-17T19:21:51.354Z,50.45
2022-10-17T19:26:56.356Z,51.00
2022-10-17T19:32:00.483Z,50.25
2022-10-17T19:37:05.256Z,50.31
2022-10-17T19:42:08.577Z,51.37
2022-10-17T19:47:11.976Z,50.84
2022-10-17T19:52:16.803Z,50.84
2022-10-17T19:57:20.215Z,51.34
2022-10-17T20:02:23.600Z,51.49
2022-10-17T20:07:28.346Z,50.90
2022-10-17T20:12:32.017Z,52.40
2022-10-17T20:17:35.676Z,51.73
2022-10-17T20:22:40.457Z,52.06
2022-10-17T20:27:43.854Z,51.32
2022-10-17T20:32:47.358Z,50.37
2022-10-17T20:37:53.078Z,50.62
2022-10-17T20:42:56.425Z,51.33
2022-10-17T20:47:59.807Z,50.04
2022-10-17T20:53:24.791Z,50.35
2022-10-17T20:58:28.292Z,50.71
2022-10-17T21:03:31.637Z,51.22
2022-10-17T21:08:36.498Z,53.01
2022-10-17T21:13:40.167Z,53.13
2022-10-17T21:18:43.865Z,50.88
2022-10-17T21:23:49.878Z,51.98
2022-10-17T21:28:53.867Z,51.51
2022-10-17T21:33:58.653Z,51.68
2022-10-17T21:39:03.615Z,51.18
2022-10-17T21:44:12.128Z,51.33
2022-10-17T21:49:17.722Z,52.18
2022-10-17T21:54:23.884Z,52.80
2022-10-17T21:59:27.357Z,51.67
2022-10-17T22:04:30.997Z,51.48
2022-10-17T22:09:35.778Z,51.64
2022-10-17T22:14:39.190Z,51.72
2022-10-17T22:19:42.564Z,52.22
2022-10-17T22:24:47.273Z,53.69
2022-10-17T22:29:50.690Z,51.99
2022-10-17T22:34:54.141Z,51.13
2022-10-17T22:39:58.978Z,51.19
2022-10-17T22:45:03.119Z,51.69
2022-10-17T22:50:07.585Z,50.94
2022-10-17T22:55:12.708Z,53.76
2022-10-17T23:00:17.038Z,52.06
2022-10-17T23:05:20.597Z,52.77
2022-10-17T23:10:25.371Z,51.81
2022-10-17T23:15:28.848Z,51.46
2022-10-17T23:20:32.490Z,51.67
2022-10-17T23:25:37.234Z,52.64
2022-10-17T23:30:41.197Z,52.32
2022-10-17T23:35:44.645Z,52.87
2022-10-17T23:40:49.446Z,52.58
2022-10-17T23:45:52.930Z,53.24
2022-10-17T23:50:56.899Z,52.85
2022-10-17T23:56:01.673Z,52.72
